sensor_id;sensor_type;location;lat;lon;timestamp;temperature;humidity
47590;DHT22;33316;52.298;9.056;2024-02-23T00:00:07;10.30;90.70
47590;DHT22;33316;52.298;9.056;2024-02-23T00:02:36;10.20;91.20
47590;DHT22;33316;52.298;9.056;2024-02-23T00:05:03;10.20;90.70
47590;DHT22;33316;52.298;9.056;2024-02-23T00:07:31;10.20;90.80
47590;DHT22;33316;52.298;9.056;2024-02-23T00:09:58;10.20;90.90
47590;DHT22;33316;52.298;9.056;2024-02-23T00:12:25;10.20;91.00
47590;DHT22;33316;52.298;9.056;2024-02-23T00:14:51;10.20;90.80
47590;DHT22;33316;52.298;9.056;2024-02-23T00:17:18;10.20;90.70
47590;DHT22;33316;52.298;9.056;2024-02-23T00:19:45;10.20;90.80
47590;DHT22;33316;52.298;9.056;2024-02-23T00:22:13;10.20;90.80
47590;DHT22;33316;52.298;9.056;2024-02-23T00:24:41;10.10;90.60
47590;DHT22;33316;52.298;9.056;2024-02-23T00:27:07;10.10;90.60
47590;DHT22;33316;52.298;9.056;2024-02-23T00:29:34;10.10;90.70
47590;DHT22;33316;52.298;9.056;2024-02-23T00:32:02;10.10;90.80
47590;DHT22;33316;52.298;9.056;2024-02-23T00:34:28;10.10;90.90
47590;DHT22;33316;52.298;9.056;2024-02-23T00:36:57;10.10;90.80
47590;DHT22;33316;52.298;9.056;2024-02-23T00:39:24;10.10;90.80
47590;DHT22;33316;52.298;9.056;2024-02-23T00:41:52;10.10;90.60
47590;DHT22;33316;52.298;9.056;2024-02-23T00:44:19;10.00;90.60
47590;DHT22;33316;52.298;9.056;2024-02-23T00:46:45;10.00;90.60
47590;DHT22;33316;52.298;9.056;2024-02-23T00:49:12;10.00;90.60
47590;DHT22;33316;52.298;9.056;2024-02-23T00:51:39;10.00;90.60
47590;DHT22;33316;52.298;9.056;2024-02-23T00:54:06;9.90;90.70
47590;DHT22;33316;52.298;9.056;2024-02-23T00:56:34;9.90;91.00
47590;DHT22;33316;52.298;9.056;2024-02-23T00:59:02;9.90;91.70
47590;DHT22;33316;52.298;9.056;2024-02-23T01:01:29;9.80;92.20
47590;DHT22;33316;52.298;9.056;2024-02-23T01:03:57;9.80;92.50
47590;DHT22;33316;52.298;9.056;2024-02-23T01:06:24;9.70;92.60
47590;DHT22;33316;52.298;9.056;2024-02-23T01:08:53;9.70;92.80
47590;DHT22;33316;52.298;9.056;2024-02-23T01:11:19;9.60;92.80
47590;DHT22;33316;52.298;9.056;2024-02-23T01:13:46;9.60;92.90
47590;DHT22;33316;52.298;9.056;2024-02-23T01:16:15;9.50;93.00
47590;DHT22;33316;52.298;9.056;2024-02-23T01:18:42;9.50;93.20
47590;DHT22;33316;52.298;9.056;2024-02-23T01:21:08;9.40;93.30
47590;DHT22;33316;52.298;9.056;2024-02-23T01:23:35;9.30;93.60
47590;DHT22;33316;52.298;9.056;2024-02-23T01:26:02;9.30;93.80
47590;DHT22;33316;52.298;9.056;2024-02-23T01:28:29;9.20;93.90
47590;DHT22;33316;52.298;9.056;2024-02-23T01:30:56;9.20;94.00
47590;DHT22;33316;52.298;9.056;2024-02-23T01:33:24;9.10;94.20
47590;DHT22;33316;52.298;9.056;2024-02-23T01:35:51;9.10;94.30
47590;DHT22;33316;52.298;9.056;2024-02-23T01:38:18;9.00;94.50
47590;DHT22;33316;52.298;9.056;2024-02-23T01:40:46;9.00;94.70
47590;DHT22;33316;52.298;9.056;2024-02-23T01:43:14;8.90;94.80
47590;DHT22;33316;52.298;9.056;2024-02-23T01:45:40;8.90;94.90
47590;DHT22;33316;52.298;9.056;2024-02-23T01:48:07;8.80;94.90
47590;DHT22;33316;52.298;9.056;2024-02-23T01:50:36;8.80;94.80
47590;DHT22;33316;52.298;9.056;2024-02-23T01:53:04;8.80;94.90
47590;DHT22;33316;52.298;9.056;2024-02-23T01:55:32;8.70;94.90
47590;DHT22;33316;52.298;9.056;2024-02-23T01:57:59;8.70;95.00
47590;DHT22;33316;52.298;9.056;2024-02-23T02:00:27;8.70;95.00
47590;DHT22;33316;52.298;9.056;2024-02-23T02:02:55;8.60;95.00
47590;DHT22;33316;52.298;9.056;2024-02-23T02:05:22;8.60;95.00
47590;DHT22;33316;52.298;9.056;2024-02-23T02:07:51;8.60;95.10
47590;DHT22;33316;52.298;9.056;2024-02-23T02:10:20;8.50;95.10
47590;DHT22;33316;52.298;9.056;2024-02-23T02:12:46;8.50;95.20
47590;DHT22;33316;52.298;9.056;2024-02-23T02:15:13;8.50;95.30
47590;DHT22;33316;52.298;9.056;2024-02-23T02:17:40;8.50;95.40
47590;DHT22;33316;52.298;9.056;2024-02-23T02:20:12;8.50;95.40
47590;DHT22;33316;52.298;9.056;2024-02-23T02:22:39;8.50;95.40
47590;DHT22;33316;52.298;9.056;2024-02-23T02:25:08;8.40;95.30
47590;DHT22;33316;52.298;9.056;2024-02-23T02:27:34;8.40;95.10
47590;DHT22;33316;52.298;9.056;2024-02-23T02:30:01;8.40;95.10
47590;DHT22;33316;52.298;9.056;2024-02-23T02:32:28;8.40;95.10
47590;DHT22;33316;52.298;9.056;2024-02-23T02:34:55;8.30;94.90
47590;DHT22;33316;52.298;9.056;2024-02-23T02:37:22;8.30;94.80
47590;DHT22;33316;52.298;9.056;2024-02-23T02:39:49;8.30;94.80
47590;DHT22;33316;52.298;9.056;2024-02-23T02:42:17;8.30;94.80
47590;DHT22;33316;52.298;9.056;2024-02-23T02:44:44;8.30;94.80
47590;DHT22;33316;52.298;9.056;2024-02-23T02:47:10;8.20;94.70
47590;DHT22;33316;52.298;9.056;2024-02-23T02:49:39;8.20;94.70
47590;DHT22;33316;52.298;9.056;2024-02-23T02:52:05;8.20;94.70
47590;DHT22;33316;52.298;9.056;2024-02-23T02:54:33;8.20;94.80
47590;DHT22;33316;52.298;9.056;2024-02-23T02:57:00;8.20;94.80
47590;DHT22;33316;52.298;9.056;2024-02-23T02:59:28;8.20;94.80
47590;DHT22;33316;52.298;9.056;2024-02-23T03:01:57;8.20;94.80
47590;DHT22;33316;52.298;9.056;2024-02-23T03:04:24;8.20;94.90
47590;DHT22;33316;52.298;9.056;2024-02-23T03:06:50;8.20;94.90
47590;DHT22;33316;52.298;9.056;2024-02-23T03:09:17;8.20;94.90
47590;DHT22;33316;52.298;9.056;2024-02-23T03:11:44;8.20;94.80
47590;DHT22;33316;52.298;9.056;2024-02-23T03:14:11;8.20;94.70
47590;DHT22;33316;52.298;9.056;2024-02-23T03:16:39;8.20;94.70
47590;DHT22;33316;52.298;9.056;2024-02-23T03:19:06;8.10;94.70
47590;DHT22;33316;52.298;9.056;2024-02-23T03:21:33;8.10;94.70
47590;DHT22;33316;52.298;9.056;2024-02-23T03:24:00;8.10;94.70
47590;DHT22;33316;52.298;9.056;2024-02-23T03:26:27;8.10;94.70
47590;DHT22;33316;52.298;9.056;2024-02-23T03:28:53;8.10;94.60
47590;DHT22;33316;52.298;9.056;2024-02-23T03:31:20;8.10;94.50
47590;DHT22;33316;52.298;9.056;2024-02-23T03:33:48;8.10;94.50
47590;DHT22;33316;52.298;9.056;2024-02-23T03:36:15;8.10;94.50
47590;DHT22;33316;52.298;9.056;2024-02-23T03:38:42;8.10;94.40
47590;DHT22;33316;52.298;9.056;2024-02-23T03:41:08;8.00;94.30
47590;DHT22;33316;52.298;9.056;2024-02-23T03:43:35;8.10;94.30
47590;DHT22;33316;52.298;9.056;2024-02-23T03:46:03;8.00;94.20
47590;DHT22;33316;52.298;9.056;2024-02-23T03:48:32;8.10;94.30
47590;DHT22;33316;52.298;9.056;2024-02-23T03:51:02;8.00;94.20
47590;DHT22;33316;52.298;9.056;2024-02-23T03:53:30;8.00;94.30
47590;DHT22;33316;52.298;9.056;2024-02-23T03:55:57;8.00;94.20
47590;DHT22;33316;52.298;9.056;2024-02-23T03:58:24;8.00;94.10
47590;DHT22;33316;52.298;9.056;2024-02-23T04:00:51;8.00;94.10
47590;DHT22;33316;52.298;9.056;2024-02-23T04:03:18;8.00;94.10
47590;DHT22;33316;52.298;9.056;2024-02-23T04:05:45;8.00;94.10
47590;DHT22;33316;52.298;9.056;2024-02-23T04:08:13;8.00;94.10
47590;DHT22;33316;52.298;9.056;2024-02-23T04:10:40;8.00;94.10
47590;DHT22;33316;52.298;9.056;2024-02-23T04:13:07;8.00;94.10
47590;DHT22;33316;52.298;9.056;2024-02-23T04:15:34;8.00;94.10
47590;DHT22;33316;52.298;9.056;2024-02-23T04:18:01;8.00;94.00
47590;DHT22;33316;52.298;9.056;2024-02-23T04:20:28;8.00;94.00
47590;DHT22;33316;52.298;9.056;2024-02-23T04:22:54;7.90;94.00
47590;DHT22;33316;52.298;9.056;2024-02-23T04:25:22;8.00;93.90
47590;DHT22;33316;52.298;9.056;2024-02-23T04:27:49;8.00;93.90
47590;DHT22;33316;52.298;9.056;2024-02-23T04:30:16;7.90;93.90
47590;DHT22;33316;52.298;9.056;2024-02-23T04:32:43;8.00;93.90
47590;DHT22;33316;52.298;9.056;2024-02-23T04:35:10;8.00;93.90
47590;DHT22;33316;52.298;9.056;2024-02-23T04:37:37;7.90;93.80
47590;DHT22;33316;52.298;9.056;2024-02-23T04:40:05;7.90;93.70
47590;DHT22;33316;52.298;9.056;2024-02-23T04:42:34;7.90;93.70
47590;DHT22;33316;52.298;9.056;2024-02-23T04:45:00;7.90;93.50
47590;DHT22;33316;52.298;9.056;2024-02-23T04:47:27;7.90;93.50
47590;DHT22;33316;52.298;9.056;2024-02-23T04:49:54;7.90;93.40
47590;DHT22;33316;52.298;9.056;2024-02-23T04:52:21;7.90;93.40
47590;DHT22;33316;52.298;9.056;2024-02-23T04:54:47;7.90;93.20
47590;DHT22;33316;52.298;9.056;2024-02-23T04:57:14;7.90;93.10
47590;DHT22;33316;52.298;9.056;2024-02-23T04:59:42;7.80;93.00
47590;DHT22;33316;52.298;9.056;2024-02-23T05:02:09;7.80;92.90
47590;DHT22;33316;52.298;9.056;2024-02-23T05:04:36;7.80;92.90
47590;DHT22;33316;52.298;9.056;2024-02-23T05:07:03;7.80;92.80
47590;DHT22;33316;52.298;9.056;2024-02-23T05:09:29;7.80;92.80
47590;DHT22;33316;52.298;9.056;2024-02-23T05:11:57;7.80;92.70
47590;DHT22;33316;52.298;9.056;2024-02-23T05:14:24;7.80;92.80
47590;DHT22;33316;52.298;9.056;2024-02-23T05:16:52;7.80;92.80
47590;DHT22;33316;52.298;9.056;2024-02-23T05:19:19;7.80;92.80
47590;DHT22;33316;52.298;9.056;2024-02-23T05:21:46;7.80;92.80
47590;DHT22;33316;52.298;9.056;2024-02-23T05:24:13;7.80;92.70
47590;DHT22;33316;52.298;9.056;2024-02-23T05:26:39;7.80;92.60
47590;DHT22;33316;52.298;9.056;2024-02-23T05:29:06;7.70;92.60
47590;DHT22;33316;52.298;9.056;2024-02-23T05:31:46;7.80;92.70
47590;DHT22;33316;52.298;9.056;2024-02-23T05:34:15;7.80;92.70
47590;DHT22;33316;52.298;9.056;2024-02-23T05:36:42;7.70;92.60
47590;DHT22;33316;52.298;9.056;2024-02-23T05:39:09;7.70;92.60
47590;DHT22;33316;52.298;9.056;2024-02-23T05:41:36;7.70;92.50
47590;DHT22;33316;52.298;9.056;2024-02-23T05:44:03;7.70;92.60
47590;DHT22;33316;52.298;9.056;2024-02-23T05:46:32;7.70;92.70
47590;DHT22;33316;52.298;9.056;2024-02-23T05:48:59;7.70;92.60
47590;DHT22;33316;52.298;9.056;2024-02-23T05:51:29;7.70;92.60
47590;DHT22;33316;52.298;9.056;2024-02-23T05:53:56;7.70;92.70
47590;DHT22;33316;52.298;9.056;2024-02-23T05:56:23;7.70;92.70
47590;DHT22;33316;52.298;9.056;2024-02-23T05:58:50;7.70;92.60
47590;DHT22;33316;52.298;9.056;2024-02-23T06:01:17;7.70;92.60
47590;DHT22;33316;52.298;9.056;2024-02-23T06:03:44;7.70;92.60
47590;DHT22;33316;52.298;9.056;2024-02-23T06:06:11;7.70;92.60
47590;DHT22;33316;52.298;9.056;2024-02-23T06:08:39;7.70;92.60
47590;DHT22;33316;52.298;9.056;2024-02-23T06:11:06;7.70;92.60
47590;DHT22;33316;52.298;9.056;2024-02-23T06:13:32;7.70;92.70
47590;DHT22;33316;52.298;9.056;2024-02-23T06:15:59;7.70;92.70
47590;DHT22;33316;52.298;9.056;2024-02-23T06:18:26;7.70;92.70
47590;DHT22;33316;52.298;9.056;2024-02-23T06:20:53;7.70;92.60
47590;DHT22;33316;52.298;9.056;2024-02-23T06:23:19;7.60;92.70
47590;DHT22;33316;52.298;9.056;2024-02-23T06:25:48;7.70;92.60
47590;DHT22;33316;52.298;9.056;2024-02-23T06:28:15;7.60;92.70
47590;DHT22;33316;52.298;9.056;2024-02-23T06:30:42;7.60;92.70
47590;DHT22;33316;52.298;9.056;2024-02-23T06:33:09;7.60;92.60
47590;DHT22;33316;52.298;9.056;2024-02-23T06:35:36;7.60;92.70
47590;DHT22;33316;52.298;9.056;2024-02-23T06:38:03;7.60;92.70
47590;DHT22;33316;52.298;9.056;2024-02-23T06:40:31;7.60;92.70
47590;DHT22;33316;52.298;9.056;2024-02-23T06:42:59;7.60;92.70
47590;DHT22;33316;52.298;9.056;2024-02-23T06:45:26;7.70;92.80
47590;DHT22;33316;52.298;9.056;2024-02-23T06:47:52;7.60;92.80
47590;DHT22;33316;52.298;9.056;2024-02-23T06:50:19;7.60;92.80
47590;DHT22;33316;52.298;9.056;2024-02-23T06:52:47;7.60;92.80
47590;DHT22;33316;52.298;9.056;2024-02-23T06:55:15;7.60;92.90
47590;DHT22;33316;52.298;9.056;2024-02-23T06:57:42;7.70;92.90
47590;DHT22;33316;52.298;9.056;2024-02-23T07:00:11;7.70;92.90
47590;DHT22;33316;52.298;9.056;2024-02-23T07:02:38;7.70;92.90
47590;DHT22;33316;52.298;9.056;2024-02-23T07:05:06;7.70;92.90
47590;DHT22;33316;52.298;9.056;2024-02-23T07:07:33;7.70;92.80
47590;DHT22;33316;52.298;9.056;2024-02-23T07:10:00;7.70;92.80
47590;DHT22;33316;52.298;9.056;2024-02-23T07:12:28;7.70;92.80
47590;DHT22;33316;52.298;9.056;2024-02-23T07:14:55;7.70;92.80
47590;DHT22;33316;52.298;9.056;2024-02-23T07:17:23;7.80;92.80
47590;DHT22;33316;52.298;9.056;2024-02-23T07:19:50;7.70;92.70
47590;DHT22;33316;52.298;9.056;2024-02-23T07:22:18;7.80;92.70
47590;DHT22;33316;52.298;9.056;2024-02-23T07:24:46;7.80;92.70
47590;DHT22;33316;52.298;9.056;2024-02-23T07:27:13;7.80;92.60
47590;DHT22;33316;52.298;9.056;2024-02-23T07:29:40;7.80;92.60
47590;DHT22;33316;52.298;9.056;2024-02-23T07:32:06;7.90;92.60
47590;DHT22;33316;52.298;9.056;2024-02-23T07:34:34;7.90;92.60
47590;DHT22;33316;52.298;9.056;2024-02-23T07:37:01;7.90;92.60
47590;DHT22;33316;52.298;9.056;2024-02-23T07:39:29;7.90;92.50
47590;DHT22;33316;52.298;9.056;2024-02-23T07:41:56;8.00;92.50
47590;DHT22;33316;52.298;9.056;2024-02-23T07:44:23;7.90;92.50
47590;DHT22;33316;52.298;9.056;2024-02-23T07:46:53;8.00;92.50
47590;DHT22;33316;52.298;9.056;2024-02-23T07:49:21;8.00;92.40
47590;DHT22;33316;52.298;9.056;2024-02-23T07:51:49;8.00;92.30
47590;DHT22;33316;52.298;9.056;2024-02-23T07:54:16;8.10;92.40
47590;DHT22;33316;52.298;9.056;2024-02-23T07:56:43;8.10;92.30
47590;DHT22;33316;52.298;9.056;2024-02-23T07:59:09;8.10;92.40
47590;DHT22;33316;52.298;9.056;2024-02-23T08:01:36;8.20;92.30
47590;DHT22;33316;52.298;9.056;2024-02-23T08:04:03;8.20;92.30
47590;DHT22;33316;52.298;9.056;2024-02-23T08:06:30;8.20;92.30
47590;DHT22;33316;52.298;9.056;2024-02-23T08:08:58;8.20;92.40
47590;DHT22;33316;52.298;9.056;2024-02-23T08:11:25;8.20;92.40
47590;DHT22;33316;52.298;9.056;2024-02-23T08:13:52;8.30;92.30
47590;DHT22;33316;52.298;9.056;2024-02-23T08:16:19;8.20;92.20
47590;DHT22;33316;52.298;9.056;2024-02-23T08:18:45;8.30;92.10
47590;DHT22;33316;52.298;9.056;2024-02-23T08:21:12;8.20;92.00
47590;DHT22;33316;52.298;9.056;2024-02-23T08:23:39;8.30;92.00
47590;DHT22;33316;52.298;9.056;2024-02-23T08:26:07;8.20;92.00
47590;DHT22;33316;52.298;9.056;2024-02-23T08:28:35;8.30;92.00
47590;DHT22;33316;52.298;9.056;2024-02-23T08:31:02;8.30;91.90
47590;DHT22;33316;52.298;9.056;2024-02-23T08:33:29;8.30;91.80
47590;DHT22;33316;52.298;9.056;2024-02-23T08:35:56;8.40;92.00
47590;DHT22;33316;52.298;9.056;2024-02-23T08:38:22;8.40;92.30
47590;DHT22;33316;52.298;9.056;2024-02-23T08:40:49;8.40;91.80
47590;DHT22;33316;52.298;9.056;2024-02-23T08:43:17;8.50;91.70
47590;DHT22;33316;52.298;9.056;2024-02-23T08:45:45;8.60;91.70
47590;DHT22;33316;52.298;9.056;2024-02-23T08:48:12;8.60;91.50
47590;DHT22;33316;52.298;9.056;2024-02-23T08:50:40;8.70;91.40
47590;DHT22;33316;52.298;9.056;2024-02-23T08:53:07;8.70;91.20
47590;DHT22;33316;52.298;9.056;2024-02-23T08:55:34;8.70;91.10
47590;DHT22;33316;52.298;9.056;2024-02-23T08:58:01;8.70;90.80
47590;DHT22;33316;52.298;9.056;2024-02-23T09:00:29;8.70;90.70
47590;DHT22;33316;52.298;9.056;2024-02-23T09:02:56;8.70;90.70
47590;DHT22;33316;52.298;9.056;2024-02-23T09:05:22;8.80;90.80
47590;DHT22;33316;52.298;9.056;2024-02-23T09:07:49;8.90;90.80
47590;DHT22;33316;52.298;9.056;2024-02-23T09:10:16;8.90;90.70
47590;DHT22;33316;52.298;9.056;2024-02-23T09:12:43;8.90;90.60
47590;DHT22;33316;52.298;9.056;2024-02-23T09:15:10;9.00;90.50
47590;DHT22;33316;52.298;9.056;2024-02-23T09:17:39;9.00;90.40
47590;DHT22;33316;52.298;9.056;2024-02-23T09:20:07;9.10;90.20
47590;DHT22;33316;52.298;9.056;2024-02-23T09:22:34;9.10;90.20
47590;DHT22;33316;52.298;9.056;2024-02-23T09:25:01;9.10;90.20
47590;DHT22;33316;52.298;9.056;2024-02-23T09:27:30;9.10;90.10
47590;DHT22;33316;52.298;9.056;2024-02-23T09:29:57;9.10;90.00
47590;DHT22;33316;52.298;9.056;2024-02-23T09:32:24;9.10;89.90
47590;DHT22;33316;52.298;9.056;2024-02-23T09:34:52;9.10;89.50
47590;DHT22;33316;52.298;9.056;2024-02-23T09:37:19;9.10;89.40
47590;DHT22;33316;52.298;9.056;2024-02-23T09:39:46;9.10;89.30
47590;DHT22;33316;52.298;9.056;2024-02-23T09:42:12;9.10;89.60
47590;DHT22;33316;52.298;9.056;2024-02-23T09:44:39;9.00;89.20
47590;DHT22;33316;52.298;9.056;2024-02-23T09:47:08;9.10;89.00
47590;DHT22;33316;52.298;9.056;2024-02-23T09:49:38;9.10;88.90
47590;DHT22;33316;52.298;9.056;2024-02-23T09:52:08;9.10;89.00
47590;DHT22;33316;52.298;9.056;2024-02-23T09:54:37;9.00;88.80
47590;DHT22;33316;52.298;9.056;2024-02-23T09:57:07;9.00;88.80
47590;DHT22;33316;52.298;9.056;2024-02-23T09:59:34;9.00;88.90
47590;DHT22;33316;52.298;9.056;2024-02-23T10:02:01;9.00;89.00
47590;DHT22;33316;52.298;9.056;2024-02-23T10:04:30;9.00;89.00
47590;DHT22;33316;52.298;9.056;2024-02-23T10:06:57;9.00;88.60
47590;DHT22;33316;52.298;9.056;2024-02-23T10:09:25;9.00;88.40
47590;DHT22;33316;52.298;9.056;2024-02-23T10:11:53;9.00;88.50
47590;DHT22;33316;52.298;9.056;2024-02-23T10:14:20;9.00;88.20
47590;DHT22;33316;52.298;9.056;2024-02-23T10:16:47;9.00;88.40
47590;DHT22;33316;52.298;9.056;2024-02-23T10:19:14;9.00;88.00
47590;DHT22;33316;52.298;9.056;2024-02-23T10:21:40;9.00;88.10
47590;DHT22;33316;52.298;9.056;2024-02-23T10:24:07;9.00;88.10
47590;DHT22;33316;52.298;9.056;2024-02-23T10:26:35;9.00;88.20
47590;DHT22;33316;52.298;9.056;2024-02-23T10:29:02;9.00;87.90
47590;DHT22;33316;52.298;9.056;2024-02-23T10:31:30;9.00;87.70
47590;DHT22;33316;52.298;9.056;2024-02-23T10:34:03;9.00;87.60
47590;DHT22;33316;52.298;9.056;2024-02-23T10:36:36;9.00;87.40
47590;DHT22;33316;52.298;9.056;2024-02-23T10:39:07;9.00;87.50
47590;DHT22;33316;52.298;9.056;2024-02-23T10:41:36;9.00;87.30
47590;DHT22;33316;52.298;9.056;2024-02-23T10:44:05;9.10;87.30
47590;DHT22;33316;52.298;9.056;2024-02-23T10:46:32;9.10;87.20
47590;DHT22;33316;52.298;9.056;2024-02-23T10:49:01;9.10;86.80
47590;DHT22;33316;52.298;9.056;2024-02-23T10:51:31;9.10;86.90
47590;DHT22;33316;52.298;9.056;2024-02-23T10:53:59;9.10;87.00
47590;DHT22;33316;52.298;9.056;2024-02-23T10:56:26;9.10;86.90
47590;DHT22;33316;52.298;9.056;2024-02-23T10:58:55;9.10;87.00
47590;DHT22;33316;52.298;9.056;2024-02-23T11:01:25;9.10;86.60
47590;DHT22;33316;52.298;9.056;2024-02-23T11:03:52;9.10;86.40
47590;DHT22;33316;52.298;9.056;2024-02-23T11:06:20;9.10;86.10
47590;DHT22;33316;52.298;9.056;2024-02-23T11:08:47;9.10;86.00
47590;DHT22;33316;52.298;9.056;2024-02-23T11:11:16;9.20;86.00
47590;DHT22;33316;52.298;9.056;2024-02-23T11:13:44;9.20;85.80
47590;DHT22;33316;52.298;9.056;2024-02-23T11:16:21;9.20;85.90
47590;DHT22;33316;52.298;9.056;2024-02-23T11:18:48;9.20;85.80
47590;DHT22;33316;52.298;9.056;2024-02-23T11:21:15;9.20;85.90
47590;DHT22;33316;52.298;9.056;2024-02-23T11:23:43;9.20;85.80
47590;DHT22;33316;52.298;9.056;2024-02-23T11:26:10;9.20;86.00
47590;DHT22;33316;52.298;9.056;2024-02-23T11:28:47;9.30;86.10
47590;DHT22;33316;52.298;9.056;2024-02-23T11:31:20;9.30;85.80
47590;DHT22;33316;52.298;9.056;2024-02-23T11:33:49;9.30;85.70
47590;DHT22;33316;52.298;9.056;2024-02-23T11:36:23;9.30;85.40
47590;DHT22;33316;52.298;9.056;2024-02-23T11:38:52;9.30;85.60
47590;DHT22;33316;52.298;9.056;2024-02-23T11:41:20;9.40;85.80
47590;DHT22;33316;52.298;9.056;2024-02-23T11:43:47;9.40;85.70
47590;DHT22;33316;52.298;9.056;2024-02-23T11:46:16;9.40;85.50
47590;DHT22;33316;52.298;9.056;2024-02-23T11:48:44;9.50;85.10
47590;DHT22;33316;52.298;9.056;2024-02-23T11:51:13;9.50;84.90
47590;DHT22;33316;52.298;9.056;2024-02-23T11:53:42;9.50;84.80
47590;DHT22;33316;52.298;9.056;2024-02-23T11:56:09;9.50;84.60
47590;DHT22;33316;52.298;9.056;2024-02-23T11:58:37;9.60;84.80
47590;DHT22;33316;52.298;9.056;2024-02-23T12:01:04;9.70;84.90
47590;DHT22;33316;52.298;9.056;2024-02-23T12:03:34;9.70;84.90
47590;DHT22;33316;52.298;9.056;2024-02-23T12:06:04;9.80;84.50
47590;DHT22;33316;52.298;9.056;2024-02-23T12:08:31;9.80;84.40
47590;DHT22;33316;52.298;9.056;2024-02-23T12:11:04;9.90;84.30
47590;DHT22;33316;52.298;9.056;2024-02-23T12:13:31;9.90;83.90
47590;DHT22;33316;52.298;9.056;2024-02-23T12:15:59;9.90;84.00
47590;DHT22;33316;52.298;9.056;2024-02-23T12:18:25;10.00;84.20
47590;DHT22;33316;52.298;9.056;2024-02-23T12:21:00;10.00;84.50
47590;DHT22;33316;52.298;9.056;2024-02-23T12:23:39;10.10;84.60
47590;DHT22;33316;52.298;9.056;2024-02-23T12:26:06;10.10;83.90
47590;DHT22;33316;52.298;9.056;2024-02-23T12:28:33;10.10;83.50
47590;DHT22;33316;52.298;9.056;2024-02-23T12:31:00;10.20;83.40
47590;DHT22;33316;52.298;9.056;2024-02-23T12:33:28;10.20;83.30
47590;DHT22;33316;52.298;9.056;2024-02-23T12:35:55;10.20;83.40
47590;DHT22;33316;52.298;9.056;2024-02-23T12:38:24;10.20;83.30
47590;DHT22;33316;52.298;9.056;2024-02-23T12:40:51;10.20;83.00
47590;DHT22;33316;52.298;9.056;2024-02-23T12:43:18;10.20;82.70
47590;DHT22;33316;52.298;9.056;2024-02-23T12:45:47;10.20;82.30
47590;DHT22;33316;52.298;9.056;2024-02-23T12:48:16;10.20;81.90
47590;DHT22;33316;52.298;9.056;2024-02-23T12:50:44;10.20;83.30
47590;DHT22;33316;52.298;9.056;2024-02-23T12:53:32;10.20;82.80
47590;DHT22;33316;52.298;9.056;2024-02-23T12:56:00;10.20;82.70
47590;DHT22;33316;52.298;9.056;2024-02-23T12:58:27;10.20;82.50
47590;DHT22;33316;52.298;9.056;2024-02-23T13:00:55;10.30;82.60
47590;DHT22;33316;52.298;9.056;2024-02-23T13:03:22;10.20;82.30
47590;DHT22;33316;52.298;9.056;2024-02-23T13:05:49;10.20;82.30
47590;DHT22;33316;52.298;9.056;2024-02-23T13:08:17;10.30;82.60
47590;DHT22;33316;52.298;9.056;2024-02-23T13:10:52;10.20;82.60
47590;DHT22;33316;52.298;9.056;2024-02-23T13:13:20;10.30;82.80
47590;DHT22;33316;52.298;9.056;2024-02-23T13:15:48;10.30;83.10
47590;DHT22;33316;52.298;9.056;2024-02-23T13:18:15;10.30;83.00
47590;DHT22;33316;52.298;9.056;2024-02-23T13:20:42;10.40;83.10
47590;DHT22;33316;52.298;9.056;2024-02-23T13:23:09;10.40;82.90
47590;DHT22;33316;52.298;9.056;2024-02-23T13:25:37;10.40;82.80
47590;DHT22;33316;52.298;9.056;2024-02-23T13:28:18;10.40;82.40
47590;DHT22;33316;52.298;9.056;2024-02-23T13:30:51;10.40;82.00
47590;DHT22;33316;52.298;9.056;2024-02-23T13:33:18;10.30;81.90
47590;DHT22;33316;52.298;9.056;2024-02-23T13:35:48;10.30;81.60
47590;DHT22;33316;52.298;9.056;2024-02-23T13:38:15;10.30;81.60
47590;DHT22;33316;52.298;9.056;2024-02-23T13:40:43;10.30;81.50
47590;DHT22;33316;52.298;9.056;2024-02-23T13:43:11;10.30;81.90
47590;DHT22;33316;52.298;9.056;2024-02-23T13:45:48;10.30;82.20
47590;DHT22;33316;52.298;9.056;2024-02-23T13:48:16;10.30;81.90
47590;DHT22;33316;52.298;9.056;2024-02-23T13:50:45;10.30;82.10
47590;DHT22;33316;52.298;9.056;2024-02-23T13:53:14;10.30;82.20
47590;DHT22;33316;52.298;9.056;2024-02-23T13:55:41;10.40;82.20
47590;DHT22;33316;52.298;9.056;2024-02-23T13:58:11;10.40;82.20
47590;DHT22;33316;52.298;9.056;2024-02-23T14:00:42;10.40;81.70
47590;DHT22;33316;52.298;9.056;2024-02-23T14:03:16;10.40;82.00
47590;DHT22;33316;52.298;9.056;2024-02-23T14:05:43;10.40;82.20
47590;DHT22;33316;52.298;9.056;2024-02-23T14:08:14;10.40;81.60
47590;DHT22;33316;52.298;9.056;2024-02-23T14:10:43;10.40;81.50
47590;DHT22;33316;52.298;9.056;2024-02-23T14:13:12;10.40;81.60
47590;DHT22;33316;52.298;9.056;2024-02-23T14:15:39;10.40;81.90
47590;DHT22;33316;52.298;9.056;2024-02-23T14:18:06;10.40;82.20
47590;DHT22;33316;52.298;9.056;2024-02-23T14:20:33;10.40;82.30
47590;DHT22;33316;52.298;9.056;2024-02-23T14:23:00;10.40;82.10
47590;DHT22;33316;52.298;9.056;2024-02-23T14:25:27;10.40;81.80
47590;DHT22;33316;52.298;9.056;2024-02-23T14:27:54;10.40;81.90
47590;DHT22;33316;52.298;9.056;2024-02-23T14:30:22;10.40;81.80
47590;DHT22;33316;52.298;9.056;2024-02-23T14:32:49;10.40;81.70
47590;DHT22;33316;52.298;9.056;2024-02-23T14:35:16;10.40;81.40
47590;DHT22;33316;52.298;9.056;2024-02-23T14:37:43;10.40;81.40
47590;DHT22;33316;52.298;9.056;2024-02-23T14:40:10;10.40;81.50
47590;DHT22;33316;52.298;9.056;2024-02-23T14:42:39;10.40;81.40
47590;DHT22;33316;52.298;9.056;2024-02-23T14:45:07;10.40;81.30
47590;DHT22;33316;52.298;9.056;2024-02-23T14:47:35;10.30;81.40
47590;DHT22;33316;52.298;9.056;2024-02-23T14:50:03;10.40;81.40
47590;DHT22;33316;52.298;9.056;2024-02-23T14:52:30;10.30;81.40
47590;DHT22;33316;52.298;9.056;2024-02-23T14:54:57;10.40;81.40
47590;DHT22;33316;52.298;9.056;2024-02-23T14:57:24;10.30;81.20
47590;DHT22;33316;52.298;9.056;2024-02-23T14:59:51;10.30;81.50
47590;DHT22;33316;52.298;9.056;2024-02-23T15:02:20;10.30;82.40
47590;DHT22;33316;52.298;9.056;2024-02-23T15:04:48;10.20;83.10
47590;DHT22;33316;52.298;9.056;2024-02-23T15:07:16;10.20;84.00
47590;DHT22;33316;52.298;9.056;2024-02-23T15:09:42;10.20;84.70
47590;DHT22;33316;52.298;9.056;2024-02-23T15:12:09;10.10;85.10
47590;DHT22;33316;52.298;9.056;2024-02-23T15:14:37;10.10;85.60
47590;DHT22;33316;52.298;9.056;2024-02-23T15:17:05;10.10;86.00
47590;DHT22;33316;52.298;9.056;2024-02-23T15:19:33;10.10;86.30
47590;DHT22;33316;52.298;9.056;2024-02-23T15:22:05;10.10;86.60
47590;DHT22;33316;52.298;9.056;2024-02-23T15:24:35;10.10;86.70
47590;DHT22;33316;52.298;9.056;2024-02-23T15:27:05;10.10;86.70
47590;DHT22;33316;52.298;9.056;2024-02-23T15:29:32;10.10;86.70
47590;DHT22;33316;52.298;9.056;2024-02-23T15:31:59;10.10;86.70
47590;DHT22;33316;52.298;9.056;2024-02-23T15:34:28;10.10;86.60
47590;DHT22;33316;52.298;9.056;2024-02-23T15:36:55;10.10;86.40
47590;DHT22;33316;52.298;9.056;2024-02-23T15:39:23;10.00;86.00
47590;DHT22;33316;52.298;9.056;2024-02-23T15:41:50;10.00;85.70
47590;DHT22;33316;52.298;9.056;2024-02-23T15:44:17;10.00;85.80